Time;durP1;ratioP1;P1;durP2;ratioP2;P2;SDS_P1;SDS_P2;PMS_P1;PMS_P2;Temp;Humidity;BMP_temperature;BMP_pressure;BME280_temperature;BME280_humidity;BME280_pressure;Samples;Min_cycle;Max_cycle;Signal;HPM_P1;HPM_P2
2023/10/17 00:00:16;;;;;;;38.08;23.17;;;6.00;99.90;;;;;;6289712;22;20019;-82
2023/10/17 00:02:44;;;;;;;36.22;24.17;;;6.10;99.90;;;;;;6295690;22;20027;-82
2023/10/17 00:05:14;;;;;;;35.95;22.45;;;6.10;99.90;;;;;;6248507;22;20023;-84
2023/10/17 00:07:44;;;;;;;42.33;24.30;;;6.00;99.90;;;;;;6252138;22;20020;-84
2023/10/17 00:10:15;;;;;;;37.47;22.77;;;5.90;99.90;;;;;;6256480;22;20023;-82
2023/10/17 00:12:50;;;;;;;38.85;23.50;;;5.90;99.90;;;;;;6289355;22;20431;-83
2023/10/17 00:15:27;;;;;;;43.65;24.95;;;5.90;99.90;;;;;;6286964;22;20068;-84
2023/10/17 00:18:00;;;;;;;34.83;23.30;;;6.00;99.90;;;;;;6285523;22;20020;-83
2023/10/17 00:20:32;;;;;;;34.65;21.58;;;5.90;99.90;;;;;;6281123;22;20024;-84
2023/10/17 00:22:59;;;;;;;36.13;22.67;;;5.90;99.90;;;;;;6283444;22;20472;-82
2023/10/17 00:25:27;;;;;;;37.65;22.33;;;5.90;99.90;;;;;;6251037;22;20028;-83
2023/10/17 00:27:54;;;;;;;36.17;23.33;;;5.90;99.90;;;;;;6302206;22;20035;-82
2023/10/17 00:30:29;;;;;;;38.97;22.63;;;5.90;99.90;;;;;;6263824;22;20222;-82
2023/10/17 00:32:57;;;;;;;38.90;23.15;;;6.00;99.90;;;;;;6291224;22;20023;-83
2023/10/17 00:35:26;;;;;;;34.50;22.05;;;6.00;99.90;;;;;;6279910;22;20089;-82
2023/10/17 00:37:57;;;;;;;36.83;22.75;;;6.00;99.90;;;;;;6245511;22;20454;-83
2023/10/17 00:40:45;;;;;;;35.53;22.75;;;6.00;99.90;;;;;;6246573;22;20384;-83
2023/10/17 00:43:13;;;;;;;36.95;24.67;;;6.00;99.90;;;;;;6273070;22;20028;-83
2023/10/17 00:45:45;;;;;;;35.10;24.67;;;5.90;99.90;;;;;;6246856;22;20039;-83
2023/10/17 00:48:20;;;;;;;32.75;23.73;;;5.90;99.90;;;;;;6276787;22;20099;-84
2023/10/17 00:50:52;;;;;;;34.65;23.65;;;5.90;99.90;;;;;;6279584;22;20016;-83
2023/10/17 00:53:20;;;;;;;35.28;23.73;;;6.00;99.90;;;;;;6247739;22;20051;-84
2023/10/17 00:55:55;;;;;;;28.42;21.38;;;5.90;99.90;;;;;;6247807;22;20023;-82
2023/10/17 00:58:24;;;;;;;32.97;21.52;;;5.90;99.90;;;;;;6247858;22;20031;-84
2023/10/17 01:01:09;;;;;;;35.00;21.95;;;5.80;99.90;;;;;;6275517;22;20028;-85
2023/10/17 01:03:41;;;;;;;31.73;20.58;;;5.80;99.90;;;;;;6246291;22;20020;-83
2023/10/17 01:06:21;;;;;;;34.53;22.33;;;5.80;99.90;;;;;;6249150;22;20023;-83
2023/10/17 01:08:49;;;;;;;36.08;21.10;;;5.90;99.90;;;;;;6282328;22;20023;-84
2023/10/17 01:11:21;;;;;;;32.90;21.48;;;5.70;99.90;;;;;;6250869;22;20030;-83
2023/10/17 01:13:51;;;;;;;28.73;19.67;;;5.70;99.90;;;;;;6246393;22;20503;-81
2023/10/17 01:16:21;;;;;;;27.63;18.05;;;5.70;99.90;;;;;;6247658;22;20034;-83
2023/10/17 01:18:49;;;;;;;28.15;17.75;;;5.80;99.90;;;;;;6273505;22;20085;-83
2023/10/17 01:21:19;;;;;;;22.83;16.45;;;5.80;99.90;;;;;;6247954;22;20023;-84
2023/10/17 01:23:48;;;;;;;27.15;17.00;;;5.70;99.90;;;;;;6232535;22;20023;-83
2023/10/17 01:26:23;;;;;;;28.48;18.08;;;5.80;99.90;;;;;;6246269;22;20107;-82
2023/10/17 01:28:52;;;;;;;29.57;18.70;;;5.80;99.90;;;;;;6245796;22;20016;-83
2023/10/17 01:31:25;;;;;;;26.92;16.92;;;5.70;99.90;;;;;;6283963;22;20607;-83
2023/10/17 01:33:55;;;;;;;28.13;18.92;;;5.70;99.90;;;;;;6273928;22;20027;-83
2023/10/17 01:36:23;;;;;;;27.63;17.80;;;5.60;99.90;;;;;;6245875;22;20030;-82
2023/10/17 01:38:51;;;;;;;26.52;17.58;;;5.70;99.90;;;;;;6245410;22;20027;-84
2023/10/17 01:41:22;;;;;;;32.38;18.95;;;5.60;99.90;;;;;;6245866;22;20151;-84
2023/10/17 01:43:50;;;;;;;31.63;19.33;;;5.60;99.90;;;;;;6245938;22;20019;-84
2023/10/17 01:46:21;;;;;;;27.85;18.15;;;5.60;99.90;;;;;;6246445;22;20031;-83
2023/10/17 01:48:50;;;;;;;28.02;18.33;;;5.70;99.90;;;;;;6245206;22;20024;-82
2023/10/17 01:51:19;;;;;;;30.33;19.77;;;5.60;99.90;;;;;;6276225;22;20069;-84
2023/10/17 01:53:50;;;;;;;29.60;20.23;;;5.70;99.90;;;;;;6246659;22;20026;-83
2023/10/17 01:56:20;;;;;;;34.25;21.20;;;5.60;99.90;;;;;;6269290;22;20054;-83
2023/10/17 01:58:50;;;;;;;31.65;20.70;;;5.60;99.90;;;;;;6246548;22;20715;-84
2023/10/17 02:01:24;;;;;;;45.08;28.58;;;5.60;99.90;;;;;;6248005;22;20015;-83
2023/10/17 02:03:52;;;;;;;29.38;19.50;;;5.60;99.90;;;;;;6246211;22;20030;-83
2023/10/17 02:06:21;;;;;;;26.85;16.75;;;5.70;99.90;;;;;;6275482;22;20031;-83
2023/10/17 02:08:49;;;;;;;22.75;15.30;;;5.60;99.90;;;;;;6279596;22;20028;-83
2023/10/17 02:11:25;;;;;;;24.92;15.75;;;5.60;99.90;;;;;;6246140;22;20024;-84
2023/10/17 02:13:56;;;;;;;25.58;14.40;;;5.70;99.90;;;;;;6281226;22;20019;-83
2023/10/17 02:16:24;;;;;;;23.90;13.73;;;5.70;99.90;;;;;;6258737;22;20012;-83
2023/10/17 02:18:52;;;;;;;24.55;12.60;;;5.70;99.90;;;;;;6247824;22;20016;-82
2023/10/17 02:21:22;;;;;;;22.10;12.13;;;5.70;99.90;;;;;;6253320;22;20055;-83
2023/10/17 02:23:55;;;;;;;17.77;11.85;;;5.60;99.90;;;;;;6286481;22;20046;-83
2023/10/17 02:26:28;;;;;;;24.92;12.20;;;5.60;99.90;;;;;;6250416;22;20030;-82
2023/10/17 02:28:59;;;;;;;26.67;12.90;;;5.60;99.90;;;;;;6282701;22;20513;-82
2023/10/17 02:31:29;;;;;;;22.15;11.75;;;5.50;99.90;;;;;;6248313;22;20075;-84
2023/10/17 02:33:57;;;;;;;24.35;13.70;;;5.50;99.90;;;;;;6278005;22;20016;-82
2023/10/17 02:36:27;;;;;;;26.35;15.20;;;5.50;99.90;;;;;;6249534;22;20030;-82
2023/10/17 02:38:54;;;;;;;24.40;14.35;;;5.50;99.90;;;;;;6248835;22;20023;-83
2023/10/17 02:41:22;;;;;;;25.10;15.27;;;5.50;99.90;;;;;;6287544;22;20020;-83
2023/10/17 02:43:52;;;;;;;25.27;14.93;;;5.50;99.90;;;;;;6269194;22;20024;-83
2023/10/17 02:46:26;;;;;;;23.30;14.90;;;5.60;99.90;;;;;;6259658;22;20074;-84
2023/10/17 02:48:54;;;;;;;25.23;14.82;;;5.50;99.90;;;;;;6267708;22;20015;-82
2023/10/17 02:51:33;;;;;;;30.17;16.77;;;5.60;99.90;;;;;;6293692;22;20043;-82
2023/10/17 02:54:05;;;;;;;32.97;18.05;;;5.60;99.90;;;;;;6280171;22;20069;-83
2023/10/17 02:56:46;;;;;;;25.20;15.43;;;5.70;99.90;;;;;;6281468;22;20055;-81
2023/10/17 02:59:16;;;;;;;27.48;16.20;;;5.70;99.90;;;;;;6250552;22;20024;-83
2023/10/17 03:01:52;;;;;;;25.20;15.77;;;5.60;99.90;;;;;;6287190;22;20015;-84
2023/10/17 03:04:23;;;;;;;24.00;15.73;;;5.70;99.90;;;;;;6251542;22;20077;-84
2023/10/17 03:06:54;;;;;;;25.77;16.52;;;5.60;99.90;;;;;;6250592;22;20475;-85
2023/10/17 03:12:23;;;;;;;24.30;15.05;;;5.60;99.90;;;;;;6196641;22;20348;-82
2023/10/17 03:17:33;;;;;;;22.75;16.35;;;5.50;99.90;;;;;;6246779;22;20085;-85
2023/10/17 03:20:00;;;;;;;25.02;16.23;;;5.50;99.90;;;;;;6250153;22;20066;-84
2023/10/17 03:22:28;;;;;;;24.83;17.30;;;5.40;99.90;;;;;;6291925;22;20018;-85
2023/10/17 03:25:02;;;;;;;24.42;15.75;;;5.30;99.90;;;;;;6251778;22;20026;-81
2023/10/17 03:27:48;;;;;;;25.25;14.88;;;5.30;99.90;;;;;;6247893;22;20038;-83
2023/10/17 03:30:19;;;;;;;23.35;15.35;;;5.30;99.90;;;;;;6247053;22;20447;-83
2023/10/17 03:33:05;;;;;;;21.35;15.35;;;5.30;99.90;;;;;;6248931;22;20028;-84
2023/10/17 03:35:36;;;;;;;27.02;15.90;;;5.30;99.90;;;;;;6249023;22;20033;-84
2023/10/17 03:38:08;;;;;;;21.23;14.75;;;5.40;99.90;;;;;;6285220;22;20015;-85
2023/10/17 03:40:40;;;;;;;23.35;14.80;;;5.30;99.90;;;;;;6246712;22;20019;-86
2023/10/17 03:43:12;;;;;;;23.90;16.15;;;5.20;99.90;;;;;;6249349;22;20016;-84
2023/10/17 03:45:52;;;;;;;26.42;16.42;;;5.30;99.90;;;;;;6277202;22;20023;-84
2023/10/17 03:48:22;;;;;;;28.05;17.55;;;5.40;99.90;;;;;;6248644;22;20024;-82
2023/10/17 03:50:58;;;;;;;24.48;17.48;;;5.30;99.90;;;;;;6281269;22;20032;-83
2023/10/17 03:53:29;;;;;;;25.35;16.60;;;5.30;99.90;;;;;;6251911;22;20019;-85
2023/10/17 03:56:00;;;;;;;24.95;16.83;;;5.20;99.90;;;;;;6285415;22;20027;-84
2023/10/17 03:58:43;;;;;;;29.10;17.52;;;5.20;99.90;;;;;;6287927;22;20030;-84
2023/10/17 04:01:11;;;;;;;23.30;14.52;;;5.20;99.90;;;;;;6288975;22;20020;-85
2023/10/17 04:03:42;;;;;;;23.15;13.70;;;5.10;99.90;;;;;;6278994;22;20491;-85
2023/10/17 04:06:18;;;;;;;21.38;13.15;;;5.10;99.90;;;;;;6250780;22;20024;-83
2023/10/17 04:08:49;;;;;;;15.98;12.55;;;5.00;99.90;;;;;;6281837;22;20066;-85
2023/10/17 04:11:25;;;;;;;18.27;12.45;;;5.00;99.90;;;;;;6284664;22;20024;-82
2023/10/17 04:13:54;;;;;;;;;;;5.00;99.90;;;;;;6273638;22;20015;-84
2023/10/17 04:16:26;;;;;;;23.73;16.58;;;5.00;99.90;;;;;;6291686;22;19919;-83
2023/10/17 04:19:00;;;;;;;30.10;19.90;;;5.00;99.90;;;;;;6257206;22;20050;-84
2023/10/17 04:21:30;;;;;;;29.30;19.20;;;5.10;99.90;;;;;;6296720;22;20020;-84
2023/10/17 04:24:01;;;;;;;28.33;19.60;;;5.20;99.90;;;;;;6297937;22;20008;-83
2023/10/17 04:26:29;;;;;;;31.25;20.67;;;5.10;99.90;;;;;;6294393;22;20050;-84
2023/10/17 04:29:00;;;;;;;33.70;21.10;;;5.10;99.90;;;;;;6259210;22;20478;-83
2023/10/17 04:31:29;;;;;;;31.10;19.58;;;5.10;99.90;;;;;;6260116;22;20012;-82
2023/10/17 04:34:06;;;;;;;33.20;20.40;;;5.00;99.90;;;;;;6297860;22;20417;-83
2023/10/17 04:36:37;;;;;;;39.38;25.15;;;4.90;99.90;;;;;;6289388;22;20077;-84
2023/10/17 04:39:13;;;;;;;30.98;18.67;;;5.00;99.90;;;;;;6292793;22;20024;-84
2023/10/17 04:42:04;;;;;;;28.27;17.45;;;5.10;99.90;;;;;;6276817;22;20573;-84
2023/10/17 04:44:34;;;;;;;26.90;17.23;;;5.20;99.90;;;;;;6283786;22;20035;-84
2023/10/17 04:49:53;;;;;;;27.58;19.27;;;5.20;99.90;;;;;;6243936;22;20530;-84
2023/10/17 04:52:21;;;;;;;31.92;20.33;;;5.10;99.90;;;;;;6287899;22;20015;-83
2023/10/17 04:54:53;;;;;;;34.42;21.60;;;5.00;99.90;;;;;;6278331;22;20416;-82
2023/10/17 04:57:19;;;;;;;30.85;19.92;;;5.20;99.90;;;;;;6250501;22;20024;-85
2023/10/17 04:59:59;;;;;;;27.00;19.50;;;5.00;99.90;;;;;;6281001;22;20098;-84
2023/10/17 05:02:41;;;;;;;33.97;23.05;;;4.70;99.90;;;;;;6284389;22;20471;-85
2023/10/17 05:08:18;;;;;;;30.90;21.58;;;4.70;99.90;;;;;;6248940;22;20086;-84
2023/10/17 06:17:27;;;;;;;36.00;23.65;;;6.50;99.90;;;;;;6188401;23;20016;-79
2023/10/17 06:19:58;;;;;;;34.40;22.73;;;6.60;99.90;;;;;;6214086;23;20042;-80
2023/10/17 06:23:22;;;;;;;35.45;22.40;;;6.70;99.90;;;;;;6190576;23;20017;-75
2023/10/17 06:28:26;;;;;;;27.38;17.55;;;6.90;99.90;;;;;;6204178;23;20044;-75
2023/10/17 06:33:36;;;;;;;35.63;22.08;;;7.00;99.90;;;;;;6212743;23;20023;-78
2023/10/17 06:36:13;;;;;;;28.65;19.23;;;7.10;99.90;;;;;;6188358;23;20091;-75
2023/10/17 06:38:47;;;;;;;30.65;19.15;;;7.30;99.90;;;;;;6188766;23;20071;-78
2023/10/17 06:41:30;;;;;;;39.72;24.98;;;7.60;99.90;;;;;;6222093;23;20020;-77
2023/10/17 06:47:49;;;;;;;40.50;24.35;;;7.90;99.90;;;;;;6214894;22;20042;-75
2023/10/17 06:51:28;;;;;;;41.95;24.70;;;8.00;99.90;;;;;;6289642;22;20019;-77
2023/10/17 06:53:15;;;;;;;53.60;28.00;;;8.00;99.90;;;;;;6271781;22;20023;-77
2023/10/17 06:55:47;;;;;;;39.08;24.60;;;8.20;99.90;;;;;;6271756;22;20043;-77
2023/10/17 06:58:15;;;;;;;37.55;24.55;;;8.20;99.90;;;;;;6267574;22;20012;-78
2023/10/17 07:00:49;;;;;;;41.03;25.52;;;8.30;99.90;;;;;;6271085;22;20023;-78
2023/10/17 07:03:28;;;;;;;38.72;23.60;;;8.40;99.90;;;;;;6264931;22;20109;-79
2023/10/17 07:06:11;;;;;;;40.20;22.60;;;8.50;99.90;;;;;;6250806;22;20043;-79
2023/10/17 07:08:41;;;;;;;39.03;23.83;;;8.50;99.90;;;;;;6251071;22;20661;-78
2023/10/17 07:11:24;;;;;;;36.03;24.83;;;8.50;99.90;;;;;;6244100;23;20078;-77
2023/10/17 07:14:10;;;;;;;37.65;24.27;;;8.60;99.90;;;;;;6243413;23;20436;-78
2023/10/17 07:16:48;;;;;;;33.88;21.73;;;8.60;99.90;;;;;;6254027;22;20131;-75
2023/10/17 07:22:05;;;;;;;36.90;23.35;;;8.80;99.90;;;;;;6230100;22;20031;-80
2023/10/17 07:24:35;;;;;;;36.28;22.98;;;8.90;99.90;;;;;;6244772;22;20028;-78
2023/10/17 07:27:11;;;;;;;31.63;21.60;;;9.10;99.90;;;;;;6241473;23;20353;-78
2023/10/17 07:29:45;;;;;;;35.65;24.20;;;9.30;99.90;;;;;;6246968;22;20037;-75
2023/10/17 07:32:16;;;;;;;39.10;24.73;;;9.60;99.90;;;;;;6249767;22;20043;-77
2023/10/17 07:34:46;;;;;;;37.65;25.60;;;9.80;99.90;;;;;;6251555;22;20043;-77
2023/10/17 07:37:22;;;;;;;34.00;24.17;;;9.90;99.90;;;;;;6241446;23;20016;-79
2023/10/17 07:42:45;;;;;;;43.08;28.00;;;9.90;99.90;;;;;;6240782;22;20066;-76
2023/10/17 07:45:17;;;;;;;46.38;31.55;;;10.10;99.90;;;;;;6240991;23;20020;-77
2023/10/17 07:47:51;;;;;;;48.50;30.42;;;10.20;99.90;;;;;;6248044;22;20346;-80
2023/10/17 07:50:20;;;;;;;43.85;29.33;;;10.40;99.90;;;;;;6248993;22;20087;-76
2023/10/17 07:52:51;;;;;;;46.38;31.80;;;10.40;99.90;;;;;;6251355;22;20016;-76
2023/10/17 07:55:22;;;;;;;48.33;29.83;;;10.50;99.90;;;;;;6242078;23;20012;-80
2023/10/17 07:57:52;;;;;;;49.25;30.70;;;10.20;99.90;;;;;;6242198;22;20099;-78
2023/10/17 08:00:27;;;;;;;44.88;29.77;;;9.80;99.90;;;;;;6244341;22;20381;-77
2023/10/17 08:02:56;;;;;;;43.40;28.75;;;9.90;99.90;;;;;;6247400;22;20030;-77
2023/10/17 08:05:27;;;;;;;45.38;29.35;;;9.80;99.90;;;;;;6247583;23;20020;-78
2023/10/17 08:08:04;;;;;;;47.65;30.48;;;10.00;99.90;;;;;;6254394;22;20017;-78
2023/10/17 08:10:35;;;;;;;44.88;28.40;;;10.20;99.90;;;;;;6254817;22;20008;-78
2023/10/17 08:13:03;;;;;;;46.05;27.85;;;10.50;99.90;;;;;;6255012;22;20016;-76
2023/10/17 08:15:36;;;;;;;43.60;28.52;;;10.60;99.90;;;;;;6241331;23;20024;-77
2023/10/17 08:18:13;;;;;;;47.63;30.83;;;10.80;99.90;;;;;;6245979;22;20095;-75
2023/10/17 08:23:30;;;;;;;55.15;33.38;;;11.40;99.90;;;;;;6210762;22;20030;-77
2023/10/17 08:25:59;;;;;;;48.95;33.47;;;11.50;99.90;;;;;;6243893;23;20083;-76
2023/10/17 08:28:37;;;;;;;50.53;33.10;;;11.50;99.90;;;;;;6253344;22;20027;-75
2023/10/17 08:31:17;;;;;;;49.50;33.53;;;11.60;99.90;;;;;;6254778;22;20036;-78
2023/10/17 08:33:52;;;;;;;51.13;32.95;;;11.80;99.90;;;;;;6253714;22;20050;-77
2023/10/17 08:36:23;;;;;;;51.08;33.13;;;11.80;99.90;;;;;;6250168;23;20016;-76
2023/10/17 08:38:54;;;;;;;55.78;32.92;;;11.90;99.90;;;;;;6248846;22;20094;-77
2023/10/17 08:41:23;;;;;;;49.60;31.83;;;11.90;99.90;;;;;;6252412;22;20087;-76
2023/10/17 08:43:51;;;;;;;45.65;30.52;;;12.00;99.90;;;;;;6242513;23;20083;-76
2023/10/17 08:46:18;;;;;;;46.53;31.02;;;12.00;99.90;;;;;;6253142;23;20047;-78
2023/10/17 08:48:46;;;;;;;48.15;31.52;;;11.80;99.90;;;;;;6242024;22;20028;-78
2023/10/17 08:51:15;;;;;;;50.92;31.13;;;11.60;99.90;;;;;;6232319;22;20020;-78
2023/10/17 08:53:44;;;;;;;49.00;31.20;;;11.50;99.90;;;;;;6247136;22;20020;-79
2023/10/17 08:56:14;;;;;;;47.13;31.40;;;11.40;99.90;;;;;;6249289;22;20020;-79
2023/10/17 08:58:43;;;;;;;51.97;31.58;;;11.40;99.90;;;;;;6239891;22;20043;-78
2023/10/17 09:01:16;;;;;;;48.90;32.75;;;11.50;99.90;;;;;;6253028;22;20024;-78
2023/10/17 09:03:46;;;;;;;55.08;34.55;;;11.70;99.90;;;;;;6242332;22;20078;-77
2023/10/17 09:06:37;;;;;;;55.47;34.28;;;11.80;99.90;;;;;;6244866;22;20087;-77
2023/10/17 09:09:21;;;;;;;47.05;30.38;;;11.80;99.90;;;;;;6245449;22;20028;-76
2023/10/17 09:12:19;;;;;;;55.45;32.60;;;12.10;99.90;;;;;;6247530;22;20476;-82
2023/10/17 09:14:49;;;;;;;51.28;32.10;;;12.20;99.90;;;;;;6241645;23;20024;-78
2023/10/17 09:17:30;;;;;;;52.97;31.23;;;12.40;99.90;;;;;;6248529;22;20028;-77
2023/10/17 09:20:06;;;;;;;47.88;30.13;;;12.30;99.90;;;;;;6238749;23;20175;-78
2023/10/17 09:45:10;;;;;;;41.42;24.95;;;12.30;99.90;;;;;;6269355;22;20027;-77
2023/10/17 09:50:46;;;;;;;38.78;24.75;;;12.40;99.90;;;;;;6259626;22;20069;-78
2023/10/17 09:53:49;;;;;;;;;;;;;;;;;;;;;
2023/10/17 09:56:20;;;;;;;38.10;25.73;;;12.60;99.90;;;;;;6220444;23;20410;-76
2023/10/17 09:58:52;;;;;;;39.05;25.45;;;12.80;99.90;;;;;;6249286;23;20091;-77
2023/10/17 10:01:23;;;;;;;39.38;25.50;;;12.90;99.90;;;;;;6252568;22;20027;-75
2023/10/17 10:03:56;;;;;;;26.40;17.80;;;13.00;99.90;;;;;;6241826;23;20048;-74
2023/10/17 10:06:25;;;;;;;27.42;17.67;;;12.90;99.90;;;;;;6222106;23;20015;-76
2023/10/17 10:08:57;;;;;;;31.75;19.17;;;12.80;99.90;;;;;;6265172;23;20355;-78
2023/10/17 10:12:02;;;;;;;28.35;19.08;;;12.90;99.90;;;;;;6267409;22;20036;-78
2023/10/17 10:14:40;;;;;;;20.80;12.20;;;12.70;99.90;;;;;;6238894;23;20028;-79
2023/10/17 10:17:10;;;;;;;17.50;10.02;;;12.80;99.90;;;;;;6270631;23;20056;-76
2023/10/17 10:19:59;;;;;;;17.13;10.85;;;12.90;99.90;;;;;;6273379;23;20030;-77
2023/10/17 10:22:53;;;;;;;15.27;10.30;;;12.90;99.90;;;;;;6270971;22;20012;-78
2023/10/17 10:25:22;;;;;;;14.02;9.40;;;13.10;99.90;;;;;;6271459;23;20020;-76
2023/10/17 10:28:09;;;;;;;21.05;13.32;;;13.30;99.90;;;;;;6262121;23;20028;-76
2023/10/17 10:30:43;;;;;;;38.85;12.15;;;13.40;99.90;;;;;;6261269;22;20101;-77
2023/10/17 10:33:13;;;;;;;31.85;10.93;;;13.20;99.90;;;;;;6271656;22;20004;-77
2023/10/17 10:35:46;;;;;;;15.00;9.05;;;13.30;99.90;;;;;;6262374;23;20361;-78
2023/10/17 10:38:13;;;;;;;16.73;9.13;;;13.60;99.90;;;;;;6246356;23;20266;-76
2023/10/17 10:40:41;;;;;;;14.63;8.38;;;13.70;99.90;;;;;;6259356;22;20008;-77
2023/10/17 10:43:11;;;;;;;17.08;7.93;;;13.60;99.90;;;;;;6258949;23;20027;-76
2023/10/17 10:45:47;;;;;;;14.20;10.07;;;13.60;99.90;;;;;;6253037;23;20024;-76
2023/10/17 10:48:17;;;;;;;14.15;8.35;;;13.40;99.90;;;;;;6247388;23;20473;-75
2023/10/17 10:50:46;;;;;;;12.68;8.77;;;13.40;99.90;;;;;;6225569;22;20109;-74
2023/10/17 10:53:21;;;;;;;14.18;9.20;;;13.50;99.90;;;;;;6239415;23;20400;-75
2023/10/17 10:55:53;;;;;;;15.98;10.32;;;13.20;99.90;;;;;;6259906;23;20046;-76
2023/10/17 10:58:20;;;;;;;13.23;8.85;;;13.20;99.90;;;;;;6268285;23;20018;-79
2023/10/17 11:00:56;;;;;;;12.68;7.88;;;13.30;99.90;;;;;;6258869;22;20028;-77
2023/10/17 11:03:25;;;;;;;15.07;8.50;;;13.30;99.90;;;;;;6257244;23;20027;-76
2023/10/17 11:05:57;;;;;;;13.52;7.65;;;13.20;99.90;;;;;;6225571;23;20020;-76
2023/10/17 11:08:25;;;;;;;13.55;7.82;;;13.30;99.90;;;;;;6263569;23;20059;-79
2023/10/17 11:10:59;;;;;;;16.38;9.98;;;13.40;99.90;;;;;;6270326;22;20015;-77
2023/10/17 11:13:32;;;;;;;14.07;9.18;;;13.40;99.90;;;;;;6268949;23;20028;-78
2023/10/17 11:16:00;;;;;;;16.10;11.15;;;13.50;99.90;;;;;;6262808;23;20012;-77
2023/10/17 11:18:31;;;;;;;14.13;7.63;;;13.60;99.90;;;;;;6246817;23;20086;-78
2023/10/17 11:21:00;;;;;;;12.07;7.68;;;13.60;99.90;;;;;;6248239;22;20054;-77
2023/10/17 11:23:29;;;;;;;11.95;6.85;;;13.40;99.90;;;;;;6217590;23;20445;-77
2023/10/17 11:25:59;;;;;;;11.25;6.88;;;13.40;99.90;;;;;;6254848;23;20026;-77
2023/10/17 11:28:28;;;;;;;11.73;6.40;;;13.30;99.90;;;;;;6256417;23;20115;-79
2023/10/17 11:30:58;;;;;;;10.57;6.20;;;13.40;99.90;;;;;;6254853;22;20012;-76
2023/10/17 11:33:45;;;;;;;9.55;4.25;;;13.60;99.90;;;;;;6245695;23;20016;-76
2023/10/17 11:36:16;;;;;;;9.77;4.75;;;13.70;99.90;;;;;;6245831;23;20449;-77
2023/10/17 11:38:46;;;;;;;8.73;4.20;;;13.90;99.90;;;;;;6248009;23;20453;-81
2023/10/17 11:41:15;;;;;;;32.20;8.02;;;14.00;99.90;;;;;;6249516;22;20309;-78
2023/10/17 11:43:50;;;;;;;6.68;3.58;;;14.20;99.90;;;;;;6268146;22;20015;-78
2023/10/17 11:46:29;;;;;;;6.50;3.50;;;14.40;99.90;;;;;;6285511;22;20019;-78
2023/10/17 11:49:20;;;;;;;6.70;3.20;;;14.50;99.90;;;;;;6272896;22;20041;-76
2023/10/17 11:51:51;;;;;;;9.75;3.72;;;14.60;99.90;;;;;;6274382;22;20094;-78
2023/10/17 11:54:22;;;;;;;7.93;3.47;;;14.60;99.90;;;;;;6265361;22;20054;-78
2023/10/17 11:56:50;;;;;;;7.10;3.17;;;14.10;99.90;;;;;;6278240;22;20081;-76
2023/10/17 11:59:18;;;;;;;7.97;3.70;;;14.00;99.90;;;;;;6279784;22;20126;-77
2023/10/17 12:02:11;;;;;;;7.50;2.67;;;13.70;99.90;;;;;;6275025;22;20031;-76
2023/10/17 12:04:40;;;;;;;5.82;2.92;;;13.60;99.90;;;;;;6273303;22;20011;-77
2023/10/17 12:07:07;;;;;;;6.05;2.70;;;13.60;99.90;;;;;;6284159;22;20378;-75
2023/10/17 12:09:35;;;;;;;8.65;3.55;;;13.50;99.90;;;;;;6273295;22;20023;-75
2023/10/17 12:12:03;;;;;;;4.88;2.42;;;13.40;99.90;;;;;;6277244;22;20023;-77
2023/10/17 12:14:30;;;;;;;9.32;3.75;;;13.30;99.90;;;;;;6280480;22;20023;-76
2023/10/17 12:17:00;;;;;;;8.55;3.20;;;13.30;99.90;;;;;;6319334;22;20034;-75
2023/10/17 12:19:28;;;;;;;11.07;4.60;;;13.50;99.90;;;;;;6314924;22;20022;-76
2023/10/17 12:22:00;;;;;;;7.55;3.22;;;13.50;99.90;;;;;;6315328;22;20015;-76
2023/10/17 12:24:28;;;;;;;5.35;2.95;;;13.40;99.90;;;;;;6305031;22;20019;-76
2023/10/17 12:26:56;;;;;;;8.57;4.32;;;13.20;99.90;;;;;;6276099;22;20451;-77
2023/10/17 12:29:25;;;;;;;11.40;4.45;;;13.40;99.90;;;;;;6309377;22;20034;-78
2023/10/17 12:31:54;;;;;;;13.70;5.10;;;13.30;99.90;;;;;;6277097;22;20076;-74
2023/10/17 12:34:22;;;;;;;10.90;3.88;;;13.20;99.90;;;;;;6315475;22;20470;-77
2023/10/17 12:36:50;;;;;;;5.25;2.78;;;13.20;99.90;;;;;;6305266;22;20030;-75
2023/10/17 12:39:18;;;;;;;9.38;3.75;;;13.30;99.90;;;;;;6308483;22;20391;-75
2023/10/17 12:41:48;;;;;;;7.53;4.03;;;13.40;99.90;;;;;;6314089;22;20027;-75
2023/10/17 12:44:17;;;;;;;6.85;2.85;;;13.50;99.90;;;;;;6277713;22;20031;-76
2023/10/17 12:46:46;;;;;;;8.02;3.60;;;13.60;99.90;;;;;;6278136;22;20120;-74
2023/10/17 12:49:14;;;;;;;9.82;3.75;;;13.80;99.90;;;;;;6329140;22;20030;-76
2023/10/17 12:51:43;;;;;;;6.93;3.80;;;13.90;99.90;;;;;;6322054;22;20019;-77
2023/10/17 12:54:11;;;;;;;7.97;4.82;;;13.90;99.90;;;;;;6281635;22;20019;-77
2023/10/17 12:56:40;;;;;;;7.28;3.90;;;14.00;99.90;;;;;;6310409;22;20132;-76
2023/10/17 12:59:12;;;;;;;6.57;3.53;;;14.10;99.90;;;;;;6312039;22;20023;-77
2023/10/17 13:01:39;;;;;;;7.72;3.60;;;14.20;99.90;;;;;;6314924;22;20015;-77
2023/10/17 13:04:07;;;;;;;33.92;20.85;;;14.10;99.90;;;;;;6316526;22;20062;-74
2023/10/17 13:06:38;;;;;;;16.02;8.93;;;14.10;99.90;;;;;;6306934;22;20350;-76
2023/10/17 13:09:05;;;;;;;5.03;3.50;;;14.10;99.90;;;;;;6308280;22;20444;-74
2023/10/17 13:11:34;;;;;;;7.28;3.35;;;14.10;99.90;;;;;;6315090;22;20035;-76
2023/10/17 13:14:05;;;;;;;7.57;3.80;;;14.00;99.90;;;;;;6326786;22;20039;-74
2023/10/17 13:16:34;;;;;;;7.03;3.70;;;13.80;99.90;;;;;;6313638;22;20068;-76
2023/10/17 13:19:06;;;;;;;7.10;3.58;;;13.70;99.90;;;;;;6314815;22;20466;-79
2023/10/17 13:21:37;;;;;;;10.70;4.32;;;13.60;99.90;;;;;;6304108;22;20031;-75
2023/10/17 13:24:07;;;;;;;9.00;4.80;;;13.60;99.90;;;;;;6311199;22;20023;-75
2023/10/17 13:26:37;;;;;;;10.40;4.97;;;13.60;99.90;;;;;;6277672;22;20026;-76
2023/10/17 13:29:06;;;;;;;11.70;3.92;;;13.70;99.90;;;;;;6277569;22;20045;-77
2023/10/17 13:31:34;;;;;;;7.25;4.00;;;13.60;99.90;;;;;;6286941;22;20026;-76
2023/10/17 13:34:05;;;;;;;9.20;3.95;;;13.80;99.90;;;;;;6286861;22;20087;-76
2023/10/17 13:36:35;;;;;;;8.05;3.63;;;13.70;99.90;;;;;;6298604;22;20030;-76
2023/10/17 13:39:05;;;;;;;8.25;3.85;;;13.60;99.90;;;;;;6297162;22;20023;-77
2023/10/17 13:41:33;;;;;;;7.07;3.58;;;13.40;99.90;;;;;;6330068;22;20017;-78
2023/10/17 13:44:00;;;;;;;6.07;3.85;;;13.50;99.90;;;;;;6334576;22;20026;-76
2023/10/17 13:46:32;;;;;;;32.67;15.07;;;13.50;99.90;;;;;;6315162;22;20007;-77
2023/10/17 13:48:59;;;;;;;7.55;3.85;;;13.40;99.90;;;;;;6278547;22;20023;-77
2023/10/17 13:51:34;;;;;;;8.32;4.10;;;13.20;99.90;;;;;;6308713;22;20467;-78
2023/10/17 13:54:01;;;;;;;9.07;4.35;;;13.20;99.90;;;;;;6279320;22;20461;-76
2023/10/17 13:56:29;;;;;;;10.38;4.68;;;13.30;99.90;;;;;;6311958;22;20027;-74
2023/10/17 13:58:56;;;;;;;8.60;4.57;;;13.20;99.90;;;;;;6297930;22;20019;-77
2023/10/17 14:01:32;;;;;;;11.23;4.45;;;13.30;99.90;;;;;;6277166;22;20023;-75
2023/10/17 14:04:02;;;;;;;12.20;5.10;;;13.40;99.90;;;;;;6303451;22;20279;-78
2023/10/17 14:06:34;;;;;;;10.45;4.70;;;13.20;99.90;;;;;;6322071;22;20023;-77
2023/10/17 14:09:02;;;;;;;10.63;5.63;;;13.20;99.90;;;;;;6333142;22;20007;-76
2023/10/17 14:11:30;;;;;;;12.15;6.53;;;13.20;99.90;;;;;;6325889;22;20019;-76
2023/10/17 14:13:58;;;;;;;10.15;4.70;;;13.10;99.90;;;;;;6317029;22;20440;-76
2023/10/17 14:16:25;;;;;;;9.05;4.90;;;13.00;99.90;;;;;;6319787;22;20057;-77
2023/10/17 14:19:04;;;;;;;8.23;4.78;;;13.00;99.90;;;;;;6282909;22;20050;-75
2023/10/17 14:21:37;;;;;;;7.47;4.10;;;12.90;99.90;;;;;;6281082;22;20035;-76
2023/10/17 14:24:10;;;;;;;11.57;5.22;;;12.80;99.90;;;;;;6284765;22;20019;-77
2023/10/17 14:26:39;;;;;;;9.95;4.78;;;12.90;99.90;;;;;;6316256;22;20019;-77
2023/10/17 14:29:06;;;;;;;8.88;4.82;;;12.90;99.90;;;;;;6296676;22;20043;-77
2023/10/17 14:32:15;;;;;;;11.55;4.70;;;12.90;99.90;;;;;;6329106;22;20011;-76
2023/10/17 14:34:45;;;;;;;14.38;5.35;;;12.90;99.90;;;;;;6243365;22;20098;-77
2023/10/17 14:37:15;;;;;;;10.13;5.60;;;12.90;99.90;;;;;;6281700;22;20022;-76
2023/10/17 14:39:43;;;;;;;10.65;5.57;;;13.00;99.90;;;;;;6307620;22;20380;-77
2023/10/17 14:42:11;;;;;;;11.52;4.82;;;12.90;99.90;;;;;;6311773;22;20019;-75
2023/10/17 14:44:42;;;;;;;8.90;5.10;;;12.90;99.90;;;;;;6316079;22;20061;-76
2023/10/17 14:47:09;;;;;;;10.32;5.13;;;12.80;99.90;;;;;;6278398;22;20046;-78
2023/10/17 14:49:37;;;;;;;11.75;6.10;;;12.80;99.90;;;;;;6314795;22;20590;-76
2023/10/17 14:52:06;;;;;;;11.30;5.82;;;12.80;99.90;;;;;;6279874;22;20029;-74
2023/10/17 14:54:36;;;;;;;10.05;5.72;;;12.70;99.90;;;;;;6278300;22;20023;-78
2023/10/17 14:57:06;;;;;;;8.80;5.53;;;12.60;99.90;;;;;;6293838;22;20015;-76
2023/10/17 14:59:34;;;;;;;12.77;6.93;;;12.60;99.90;;;;;;6286279;22;20047;-77
2023/10/17 15:02:03;;;;;;;13.95;8.35;;;12.50;99.90;;;;;;6281449;22;20071;-78
2023/10/17 15:04:30;;;;;;;11.93;6.80;;;12.50;99.90;;;;;;6319242;22;20068;-77